This is the latest recevied weather packets stored in our database for station/object GW1545. If no packets are shown the sender has not sent any weather packets the latest 10 day(s).
| Time | Temp. | Humidity | Pressure | Rain* | Wind** | Luminosity | Snow |
|---|---|---|---|---|---|---|---|
| 1777167746 | 17.22° C | 80% | 1014.5 hPa | 0.51 mm | - | - | - |
| 1777165944 | 17.78° C | 78% | 1014.2 hPa | 0.51 mm | - | - | - |
| 1777162340 | 18.89° C | 73% | 1013.8 hPa | 0.51 mm | - | - | - |
| 1777161994 | 19.44° C | 72% | 1013.5 hPa | 0.51 mm | - | - | - |
| 1777161617 | 19.44° C | 70% | 1013.5 hPa | 0.51 mm | - | - | - |
| 1777159298 | 21.67° C | 63% | 1013.5 hPa | 0.51 mm | - | - | - |
| 1777157142 | 22.22° C | 62% | 1013.2 hPa | 0.51 mm | - | - | - |
| 1777149952 | 25° C | 53% | 1013.2 hPa | 0.51 mm | - | - | - |
| 1777149212 | 23.33° C | 60% | 1013.2 hPa | 0.51 mm | - | - | - |
| 1777148499 | 23.89° C | 55% | 1013.2 hPa | 0.51 mm | - | - | - |
| 1777145957 | 22.78° C | 65% | 1013.5 hPa | 0.51 mm | - | - | - |
| 1777144881 | 22.22° C | 68% | 1013.8 hPa | 0.51 mm | - | - | - |
| 1777141633 | 22.22° C | 66% | 1013.8 hPa | 0.51 mm | - | - | - |
| 1777140925 | 22.78° C | 63% | 1013.5 hPa | 0.51 mm | - | - | - |
| 1777140563 | 22.22° C | 67% | 1013.8 hPa | 0.51 mm | - | - | - |
| 1777136249 | 22.78° C | 67% | 1013.8 hPa | 0.51 mm | - | - | - |
| 1777134473 | 20.56° C | 74% | 1014.2 hPa | 0.51 mm | - | - | - |
| 1777132998 | 19.44° C | 80% | 1014.5 hPa | 0.51 mm | - | - | - |
| 1777131551 | 19.44° C | 80% | 1014.5 hPa | 0.51 mm | - | - | - |
| 1777131220 | 18.89° C | 79% | 1014.5 hPa | 0.51 mm | - | - | - |
| 1777129765 | 18.89° C | 84% | 1014.5 hPa | 0.51 mm | - | - | - |
| 1777128315 | 18.89° C | 83% | 1014.5 hPa | 0.51 mm | - | - | - |
| 1777125442 | 17.22° C | 90% | 1013.8 hPa | 0.51 mm | - | - | - |
| 1777122204 | 16.11° C | 93% | 1014.2 hPa | 0.51 mm | - | - | - |
| 1777121863 | 16.11° C | 93% | 1014.2 hPa | 0.51 mm | - | - | - |
* Rain since midnight (hover to see other rain measurements)
** Current wind speed in m/s (hover to see current wind gust speed)